Vue régionale

METAR et TAF

Mardi 07 avril 2020 à 08h46

Visibilités horizontales observées à différents aéroports. Les observations (METAR) et prévisions aéronautiques (TAF) complètes sont disponibles en cliquant sur l’icône correspondante.

  • Luxemburg (ELLX)

    Taf: TAF ELLX 070500Z 0706/0812 04007KT CAVOK=

    Metar: METAR ELLX 070620Z 06007KT CAVOK 12/05 Q1029 NOSIG=

  • Spangdahlem (ETAD)

    Taf: TAF ETAD 061900Z 0618/0724 VRB06KT 9999 FEW040 QNH3025INS BECMG 0700/0701 VRB04KT 9999 BKN040 QNH3036INS BECMG 0710/0711 09005KT 9999 SCT035 QNH3040INS BECMG 0719/0720 06006KT 9999 FEW030 QNH3041INS TX20/0715Z TN07/0705Z LAST NO AMDS AFT 0619=

    Metar: METAR ETAD 070556Z AUTO 06005KT 9999 CLR 09/07 A3040 RMK AO2 SLP284 T00920068 10106 20073 52010 $=

  • Metz/Nancy (LFJL)

    Taf: TAF LFJL 070500Z NIL=

    Metar: METAR LFJL 070630Z AUTO 05006KT CAVOK 10/04 Q1029=

  • Saarbrücken/Intl (EDDR)

    Taf: TAF EDDR 070500Z 0706/0806 05004KT CAVOK BECMG 0710/0712 07009KT BECMG 0719/0721 05004KT=

    Metar: METAR EDDR 070620Z 05008KT CAVOK 11/03 Q1029 NOSIG=

  • Hahn (EDFH)

    Taf: TAF EDFH 070500Z 0706/0806 07003KT CAVOK BECMG 0710/0712 08008KT BECMG 0801/0803 14007KT=

    Metar: METAR EDFH 070620Z 12003KT 090V160 CAVOK 10/06 Q1030=

  • Ramstein (ETAR)

    Taf: TAF ETAR 070200Z 0702/0808 VRB06KT 9999 SKC QNH3030INS BECMG 0707/0708 07009KT 9999 SCT080 QNH3035INS BECMG 0717/0718 09006KT 9999 SKC QNH3038INS TX21/0713Z TN02/0702Z=

    Metar: METAR ETAR 070556Z AUTO 00000KT 9999 CLR 05/02 A3039 RMK AO2 SLP296 T00500018 10050 20003 52010 FZRANO $=

  • Nancy/Ochey (LFSO)

    Taf: TAF AMD LFSO 070410Z 0704/0803 VRB02KT CAVOK TEMPO 0714/0803 10010KT=

    Metar: METAR LFSO 070630Z AUTO 02003KT CAVOK 11/05 Q1028 NOSIG=

  • Liège Bierset (EBLG)

    Taf: TAF EBLG 070500Z 0706/0812 VRB03KT 6000 NSC TEMPO 0706/0707 3000 BR MIFG PROB30 TEMPO 0706/0707 0800 BCFG=

    Metar: METAR EBLG 070620Z VRB01KT CAVOK 11/09 Q1030 NOSIG=

  • Saint-Dizier (LFSI)

    Taf: TAF AMD LFSI 070413Z 0704/0803 09004KT CAVOK=

    Metar: METAR LFSI 070630Z AUTO VRB03KT CAVOK 11/06 Q1028=

  • Maastricht/Zuid Limburg (EHBK)

    Taf: TAF EHBK 070503Z 0706/0812 06005KT CAVOK=

    Metar: METAR EHBK 070625Z AUTO 08003KT 030V120 9000 NSC 11/09 Q1030 NOSIG=

  • Köln/Köln-Bonn (EDDK)

    Taf: TAF EDDK 070500Z 0706/0812 VRB02KT CAVOK BECMG 0710/0712 06005KT BECMG 0719/0721 12004KT=

    Metar: METAR EDDK 070620Z VRB01KT CAVOK 09/07 Q1030 NOSIG=

  • Charleroi (EBCI)

    Taf: TAF EBCI 070500Z 0706/0812 VRB03KT 2000 BR NSC TEMPO 0706/07/07 0600 BCFG BECMG 0707/0708 8000 NSW=

    Metar: METAR EBCI 070620Z 04002KT 0100 R24/0225N FG NSC 09/09 Q1030 BECMG 2000 BR=

  • Wiesbaden (ETOU)

    Taf: TAF ETOU 070400Z 0704/0810 VRB04KT 8000 BR FEW040 QNH3036INS BECMG 0709/0710 07012KT 9999 NSW FEW045 QNH3044INS BECMG 0800/0801 03006KT 6000 BR FEW040 QNH3038INS TX20/0715Z TN07/0803Z=

    Metar: METAR ETOU 070556Z AUTO 00000KT 9999 CLR 09/05 A3040 RMK AO2 SLP298 T00930045 10133 20078 52014 $=

  • Karlsruhe/Baden-Baden (EDSB)

    Taf: TAF EDSB 070500Z 0706/0806 02004KT CAVOK BECMG 0710/0712 03009KT BECMG 0718/0721 03004KT=

    Metar: METAR EDSB 070620Z 00000KT CAVOK 07/05 Q1029=

  • Chalons/Vatry (LFOK)

    Taf: TAF LFOK 070500Z 0706/0806 04008KT CAVOK PROB40 TEMPO 0706/0708 3000 BR=

    Metar: METAR LFOK 070630Z AUTO 03008KT 7000 NSC 10/10 Q1028 TEMPO 3000 BR=

  • Frankfurt/Main (EDDF)

    Taf: TAF EDDF 070500Z 0706/0812 04003KT CAVOK BECMG 0710/0712 04008KT TEMPO 0802/0807 VRB03KT BECMG 0807/0810 04003KT=

    Metar: METAR EDDF 070620Z VRB02KT CAVOK 10/03 Q1030 NOSIG=

  • Brüssel (EBBR)

    Taf: TAF EBBR 070500Z 0706/0812 VRB03KT 6000 NSC TEMPO 0706/0707 4000 BR MIFG PROB30 TEMPO 0706/0707 0800 BCFG=

    Metar: METAR EBBR 070620Z 00000KT 8000 NSC 07/06 Q1030 NOSIG=

  • Düsseldorf (EDDL)

    Taf: TAF EDDL 070500Z 0706/0812 VRB02KT 9999 FEW025 PROB30 TEMPO 0706/0708 3000 BR BECMG 0710/0713 05007KT BECMG 0800/0803 15005KT=

    Metar: METAR EDDL 070620Z 05002KT 9999 FEW020 09/08 Q1031 NOSIG=

  • Luxeuil (LFSX)

    Taf: TAF LFSX 070200Z 0703/0803 VRB03KT CAVOK=

    Metar: METAR LFSX 070630Z AUTO 00000KT CAVOK 04/02 Q1028=

  • Eindhoven (EHEH)

    Taf: TAF EHEH 070504Z 0706/0812 VRB02KT 2500 BR MIFG BECMG 0707/0709 CAVOK BECMG 0708/0710 09006KT BECMG 0713/0715 12004KT FEW040 PROB30 0805/0807 6000 BR MIFG=

    Metar: METAR COR EHEH 070625Z AUTO VRB01KT 3800 BR OVC350 07/07 Q1031 GRN 10003KT 1500 BR MIFG BECMG 3000=

  • Niederrhein (EDLV)

    Taf: TAF EDLV 070500Z NIL=

    Metar: METAR EDLV 070620Z NIL=

  • Dortmund/Wickede (EDLW)

    Taf: TAF EDLW 070500Z NIL=

    Metar: METAR EDLW 070620Z AUTO 13003KT 9999 // OVC021/// 11/09 Q1031=

  • Stuttgart/Echterdingen (EDDS)

    Taf: TAF EDDS 070500Z 0706/0806 VRB03KT CAVOK BECMG 0709/0711 09008KT BECMG 0718/0721 VRB03KT=

    Metar: METAR EDDS 070620Z 00000KT CAVOK 07/03 Q1029 NOSIG=

  • Basel-Mühlhausen (LFSB)

    Taf: TAF LFSB 070500Z 0706/0806 VRB03KT CAVOK TEMPO 0711/0715 36006KT PROB40 TEMPO 0715/0719 10010KT=

    Metar: METAR LFSB 070630Z AUTO 15003KT 130V190 9999 FEW018 09/04 Q1029 NOSIG=

  • Lille (LFQQ)

    Taf: TAF AMD LFQQ 070527Z 0706/0812 VRB02KT 8000 NSC PROB30 TEMPO 0706/0707 4000 BR BECMG 0708/0710 09010KT CAVOK=

    Metar: METAR LFQQ 070630Z AUTO 02002KT CAVOK 07/07 Q1030 BECMG 09010KT=

  • Paris/Charles de Gaulle (LFPG)

    Taf: TAF AMD LFPG 070620Z 0706/0812 04005KT 0500 FG BKN001 TX23/0812Z TN09/0706Z BECMG 0706/0708 4000 BR BKN060 BECMG 0708/0710 CAVOK=

    Metar: METAR LFPG 070630Z AUTO 02009KT 5000 BR FEW001 OVC064 10/10 Q1029 TEMPO VV///=

  • Paderborn/Lippstadt (EDLP)

    Taf: TAF EDLP 070500Z NIL=

    Metar: METAR EDLP NIL=

  • Paris/Le Bourget (LFPB)

    Taf: TAF LFPB 070500Z NIL=

    Metar: METAR LFPB 070630Z AUTO 02004KT 350V060 5000 BR FEW041 OVC062 10/10 Q1029=

  • Rotterdam (EHRD)

    Taf: TAF EHRD 070429Z 0706/0812 VRB03KT 5000 BR NSC TEMPO 0706/0707 1000 BCFG BECMG 0706/0709 10007KT CAVOK=

    Metar: METAR EHRD 070625Z AUTO VRB01KT 9000 NCD 07/07 Q1030 NOSIG=

  • Zürich/Kloten (LSZH)

    Taf: TAF LSZH 070525Z 0706/0812 VRB02KT CAVOK TX23/0714Z TN03/0706Z TN03/0805Z BECMG 0709/0712 05010KT BECMG 0716/0719 VRB03KT=

    Metar: METAR LSZH 070620Z VRB01KT CAVOK 06/02 Q1029 NOSIG=

  • Oostende/Intl (EBOS)

    Taf: TAF EBOS 070500Z 0706/0812 VRB03KT 4000 BR MIFG NSC PROB30 TEMPO 0706/0707 0800 BCFG BECMG 0707/0708 8000 NSW=

    Metar: METAR EBOS 070620Z 12002KT 6000 NSC 05/04 Q1030 NOSIG=

  • Paris/Orly (LFPO)

    Taf: TAF LFPO 070500Z NIL=

    Metar: METAR LFPO 070630Z AUTO 04007KT 4300 BR NSC 12/11 Q1028=

  • Beauvais (LFOB)

    Taf: TAF LFOB 070500Z NIL=

    Metar: METAR LFOB 070630Z AUTO 33005KT CAVOK 05/04 Q1029=

  • Münster/Intl (EDDG)

    Taf: TAF EDDG 070500Z 0706/0806 VRB02KT 9999 SCT015 PROB30 TEMPO 0706/0708 3500 BR BKN004 BECMG 0711/0713 06005KT=

    Metar: METAR EDDG 070620Z 01004KT 7000 NSC 11/09 Q1031 NOSIG=

  • Illesheim (ETIK)

    Taf: TAF ETIK 0706/0812 VRB06KT 9999 SKC QNH3035INS BECMG 0803/0804 VRB06KT 6000 BR SKC QNH3036INS BECMG 0807/0808 VRB06KT 9999 NSW SKC QNH3032INS TX21/0715Z TNM01/0706Z=

    Metar: METAR ETIK 070556Z AUTO 00000KT 9999 CLR 04/04 A3042 RMK AO2 SLP309 T00350035 10040 20003 52016 $=

  • Duebendorf (LSMD)

    Taf: TAF LSMD 070500Z NIL=

    Metar: METAR LSMD 070620Z 00000KT CAVOK 06/02 Q1029 RMK BLU=

  • Villacoublay (LFPV)

    Taf: TAF LFPV 070200Z 0703/0803 06006KT 9999 SCT005 TEMPO 0704/0709 OVC005 PROB40 TEMPO 0706/0708 3000 BR OVC003 BECMG 0709/0710 BKN012 BECMG 0711/0713 CAVOK=

    Metar: METAR LFPV 070630Z AUTO 03006KT 360V060 2000 0900 R27/P2000 R09/1300N BCFG VV/// 11/10 Q1028 TEMPO OVC005 BECMG 9999 NSW=

  • Payerne (LSMP)

    Taf: TAF LSMP 070525Z 0706/0812 VRB03KT CAVOK=

    Metar: METAR LSMP 070620Z AUTO 00000KT 9999NDV NCD 05/M00 Q1029 RMK=

  • Amsterdam/Schipol (EHAM)

    Taf: TAF EHAM 070429Z 0706/0812 VRB03KT 4000 BR NSC TEMPO 0706/0707 1400 BCFG BECMG 0706/0709 10007KT CAVOK=

    Metar: METAR EHAM 070625Z VRB01KT 7000 NSC 07/06 Q1030 NOSIG=

  • Emmen (LSME)

    Taf: TAF LSME 070500Z NIL=

    Metar: METAR LSME 070620Z 00000KT CAVOK 04/02 Q1029 RMK BLU=

  • Friedrichshafen (EDNY)

    Taf: TAF EDNY 070500Z 0706/0806 VRB03KT CAVOK BECMG 0708/0710 04006KT BECMG 0711/0713 04012KT BECMG 0717/0719 04004KT=

    Metar: METAR EDNY 070620Z AUTO 05004KT 9999 // NCD 07/02 Q1030=

  • Alpnach (LSMA)

    Taf: TAF LSMA 070500Z NIL=

    Metar: METAR LSMA 070620Z 21004KT CAVOK 04/02 Q1029 RMK BLU=

  • Meiringen (LSMM)

    Taf: TAF LSMM 070500Z NIL=

    Metar: METAR LSMM 070620Z 00000KT CAVOK 04/M00 Q1029 RMK BLU=

  • Nürnberg (EDDN)

    Taf: TAF EDDN 070500Z 0706/0806 06004KT CAVOK=

    Metar: METAR EDDN 070620Z 12004KT CAVOK 06/01 Q1030 NOSIG=

  • Rouen (LFOP)

    Taf: TAF LFOP 070500Z NIL=

    Metar: METAR LFOP 070630Z AUTO 07006KT CAVOK 08/06 Q1029=

  • Evreux (LFOE)

    Taf: TAF AMD LFOE 070605Z 0706/0803 03005KT 4500 BR SCT002 BKN070 BECMG 0707/0708 08010KT CAVOK PROB30 TEMPO 0716/0719 FEW035TCU BECMG 0719/0721 VRB03KT PROB30 TEMPO 0721/0723 -SHRA SCT080TCU=

    Metar: METAR LFOE 070630Z AUTO 03004KT 6000 NSC 09/08 Q1029 NOSIG=

  • Erfurt/Bindersleben (EDDE)

    Taf: TAF EDDE 070500Z 0706/0806 25006KT CAVOK BECMG 0708/0712 01005KT BECMG 0717/0719 08004KT TEMPO 0723/0806 2000 BCFG PROB30 TEMPO 0801/0806 0300 FG=

    Metar: METAR EDDE 070620Z 23007KT CAVOK 09/02 Q1030 NOSIG=